Terminal Aerodrome Forecast
Issued by NWS

Home | Current Version | Previous Version | Text Only | Print | Product List | Glossary On
Versions: 1 2 3 4 5 6 7 8 9 10 11 12 13 14 15 16 17 18 19 20 21 22
000
FTUS45 KTFX 252334
TAFLWT
TAF
KLWT 252334Z 2600/2624 VRB06KT P6SM BKN070
     FM260600 13006KT P6SM BKN180
     FM261100 15005KT P6SM SCT070 OVC120
     FM261500 VRB06KT P6SM VCSH OVC045
      TEMPO 2616/2620 6SM -SHRA BR OVC030
     FM262200 36006KT P6SM BKN070=

USA.gov is the U.S. government's official web portal to all federal, state and local government web resources and services.